Time;durP1;ratioP1;P1;durP2;ratioP2;P2;SDS_P1;SDS_P2;PMS_P1;PMS_P2;Temp;Humidity;BMP_temperature;BMP_pressure;BME280_temperature;BME280_humidity;BME280_pressure;Samples;Min_cycle;Max_cycle;Signal;HPM_P1;HPM_P2
2024/01/27 00:02:00;;;;;;;1.85;1.20;;;10.70;73.40;;;5.88;100.00;97071.34;4913717;29;20027;-56
2024/01/27 00:04:25;;;;;;;2.60;1.38;;;10.70;73.30;;;5.85;100.00;97073.56;4908272;29;20032;-49
2024/01/27 00:06:51;;;;;;;2.85;1.60;;;10.70;73.30;;;5.83;100.00;97073.78;4911868;29;20027;-52
2024/01/27 00:09:17;;;;;;;3.15;1.30;;;10.70;73.20;;;5.80;100.00;97068.88;4913484;29;20027;-50
2024/01/27 00:11:43;;;;;;;4.38;1.77;;;10.70;73.20;;;5.76;100.00;97080.84;4912296;29;20038;-49
2024/01/27 00:14:09;;;;;;;3.85;1.38;;;10.70;73.20;;;5.73;100.00;97084.69;4913321;29;20023;-49
2024/01/27 00:16:35;;;;;;;1.88;1.10;;;10.70;73.10;;;5.72;100.00;97083.06;4908213;29;20118;-51
2024/01/27 00:19:00;;;;;;;2.28;1.10;;;10.60;73.00;;;5.72;100.00;97082.25;4913224;29;20549;-52
2024/01/27 00:21:26;;;;;;;2.28;1.27;;;10.60;72.90;;;5.65;100.00;97086.72;4908221;29;20502;-54
2024/01/27 00:23:52;;;;;;;4.93;1.23;;;10.60;72.90;;;5.51;100.00;97081.34;4913321;29;20425;-50
2024/01/27 00:26:18;;;;;;;1.50;1.13;;;10.50;72.80;;;5.50;100.00;97087.66;4918348;29;20489;-55
2024/01/27 00:28:44;;;;;;;1.67;0.95;;;10.40;72.70;;;5.39;100.00;97085.56;4912860;29;20041;-53
2024/01/27 00:31:09;;;;;;;2.17;1.30;;;10.40;72.70;;;5.42;100.00;97089.63;4910278;29;20541;-54
2024/01/27 00:33:36;;;;;;;3.08;1.30;;;10.30;72.60;;;5.31;100.00;97080.44;4911921;29;20034;-52
2024/01/27 00:36:02;;;;;;;1.67;1.33;;;10.20;72.50;;;5.26;100.00;97077.53;4912423;29;20207;-49
2024/01/27 00:38:28;;;;;;;3.80;1.10;;;10.10;72.50;;;5.16;100.00;97080.53;4912776;29;20023;-55
2024/01/27 00:40:54;;;;;;;7.22;1.65;;;10.00;72.40;;;4.97;100.00;97083.88;4912104;29;20043;-51
2024/01/27 00:43:19;;;;;;;1.95;1.35;;;9.90;72.30;;;4.89;100.00;97082.19;4913547;29;20423;-51
2024/01/27 00:45:45;;;;;;;3.03;1.30;;;9.80;72.20;;;4.77;100.00;97089.81;4907791;29;20027;-49
2024/01/27 00:48:11;;;;;;;2.72;1.50;;;9.70;72.20;;;4.53;100.00;97082.28;4912596;29;20031;-50
2024/01/27 00:50:37;;;;;;;1.52;1.35;;;9.60;72.10;;;4.29;100.00;97080.84;4912895;29;20377;-50
2024/01/27 00:53:03;;;;;;;3.20;1.60;;;9.40;72.10;;;4.21;100.00;97081.78;4911586;29;20050;-49
2024/01/27 00:55:29;;;;;;;3.05;1.40;;;9.30;72.10;;;4.21;100.00;97078.34;4912008;29;20044;-49
2024/01/27 00:57:55;;;;;;;2.50;1.27;;;9.20;72.20;;;4.09;100.00;97072.75;4908229;29;20033;-50
2024/01/27 01:00:21;;;;;;;1.85;1.40;;;9.10;72.30;;;4.09;100.00;97078.00;4906799;29;20023;-55
2024/01/27 01:02:47;;;;;;;3.17;1.60;;;9.00;72.20;;;4.02;100.00;97079.78;4912992;29;20074;-53
2024/01/27 01:05:13;;;;;;;3.88;1.33;;;8.90;72.30;;;3.89;100.00;97075.19;4910787;29;20031;-50
2024/01/27 01:07:39;;;;;;;3.75;1.30;;;8.80;72.10;;;3.64;100.00;97085.22;4912426;29;20042;-50
2024/01/27 01:10:07;;;;;;;5.20;1.50;;;8.70;72.10;;;3.56;100.00;97080.84;4911756;29;20035;-52
2024/01/27 01:12:32;;;;;;;5.55;1.55;;;8.60;72.20;;;3.56;100.00;97086.13;4913314;29;20352;-50
2024/01/27 01:14:58;;;;;;;3.22;1.55;;;8.50;72.30;;;3.50;100.00;97088.66;4912136;29;20024;-51
2024/01/27 01:17:24;;;;;;;3.08;1.50;;;8.40;72.40;;;3.43;100.00;97091.22;4911634;29;20030;-51
2024/01/27 01:19:50;;;;;;;3.25;1.45;;;8.40;72.40;;;3.28;100.00;97099.13;4912289;29;20205;-54
2024/01/27 01:22:16;;;;;;;3.00;1.65;;;8.30;72.40;;;3.09;100.00;97097.03;4911829;29;20470;-49
2024/01/27 01:24:42;;;;;;;2.90;1.70;;;8.20;72.40;;;3.06;100.00;97095.56;4912351;29;20044;-52
2024/01/27 01:27:08;;;;;;;4.60;1.58;;;8.10;72.60;;;3.05;100.00;97108.94;4912105;29;20038;-49
2024/01/27 01:29:34;;;;;;;3.03;1.58;;;8.10;72.70;;;3.10;100.00;97114.44;4911471;29;20031;-52
2024/01/27 01:32:02;;;;;;;5.03;1.60;;;8.00;72.70;;;3.05;100.00;97119.47;4912423;29;20031;-53
2024/01/27 01:34:29;;;;;;;4.55;1.38;;;7.90;72.80;;;3.00;100.00;97127.88;4910864;29;20042;-49
2024/01/27 01:36:57;;;;;;;3.17;1.40;;;7.90;72.90;;;2.98;100.00;97137.78;4911880;29;20059;-52
2024/01/27 01:39:23;;;;;;;5.78;1.80;;;7.90;73.10;;;3.03;100.00;97142.50;4911827;29;20019;-54
2024/01/27 01:41:49;;;;;;;3.58;1.40;;;7.90;73.30;;;3.10;100.00;97133.69;4912293;29;20478;-50
2024/01/27 01:44:15;;;;;;;9.13;1.60;;;7.90;73.50;;;3.18;100.00;97132.81;4913494;29;20035;-52
2024/01/27 01:46:41;;;;;;;2.88;1.40;;;7.90;73.50;;;3.19;100.00;97126.53;4910801;29;20042;-51
2024/01/27 01:49:07;;;;;;;3.08;1.27;;;8.00;73.50;;;3.18;100.00;97123.09;4911819;29;20024;-55
2024/01/27 01:51:33;;;;;;;1.90;1.20;;;8.00;73.40;;;3.18;100.00;97123.09;4910957;29;20121;-52
2024/01/27 01:54:02;;;;;;;2.20;1.33;;;8.00;73.20;;;3.14;100.00;97127.09;4912038;29;20470;-49
2024/01/27 01:56:29;;;;;;;4.03;1.40;;;8.00;73.80;;;3.04;100.00;97123.91;4910530;29;20106;-49
2024/01/27 01:58:56;;;;;;;3.55;1.77;;;8.00;72.90;;;3.01;100.00;97119.81;4910925;29;20481;-54
2024/01/27 02:01:22;;;;;;;4.55;1.65;;;7.90;72.80;;;2.91;100.00;97119.22;4912059;29;20059;-49
2024/01/27 02:03:53;;;;;;;4.47;1.25;;;7.90;72.90;;;2.90;100.00;97114.97;4911257;29;20058;-49
2024/01/27 02:06:19;;;;;;;8.00;2.00;;;7.80;72.90;;;2.89;100.00;97115.16;4914019;29;20031;-49
2024/01/27 02:08:45;;;;;;;7.60;1.90;;;7.80;72.90;;;2.83;100.00;97113.25;4915559;29;20039;-55
2024/01/27 02:11:11;;;;;;;2.22;1.50;;;7.80;72.90;;;2.75;100.00;97122.81;4915027;29;20044;-53
2024/01/27 02:13:37;;;;;;;7.38;2.33;;;7.70;73.00;;;2.73;100.00;97121.38;4915059;29;20046;-49
2024/01/27 02:16:03;;;;;;;4.93;2.35;;;7.70;73.10;;;2.71;100.00;97129.44;4913941;29;20058;-49
2024/01/27 02:18:29;;;;;;;6.80;1.60;;;7.70;73.20;;;2.70;100.00;97124.38;4935240;23;20023;-59
2024/01/27 02:20:55;;;;;;;2.92;1.75;;;7.70;73.30;;;2.80;100.00;97138.09;4972442;28;20038;-57
2024/01/27 02:23:21;;;;;;;5.57;1.70;;;7.70;73.50;;;2.82;100.00;97137.91;4970961;28;20030;-59
2024/01/27 02:25:47;;;;;;;3.75;1.50;;;7.70;73.50;;;2.74;100.00;97128.28;4972795;28;20121;-61
2024/01/27 02:28:13;;;;;;;4.20;1.73;;;7.70;73.60;;;2.77;100.00;97134.00;4971764;28;20018;-59
2024/01/27 02:30:39;;;;;;;5.00;1.70;;;7.70;73.60;;;2.76;100.00;97132.38;4970887;28;20022;-60
2024/01/27 02:33:05;;;;;;;7.63;1.70;;;7.70;73.50;;;2.84;100.00;97144.63;4969225;28;20481;-61
2024/01/27 02:35:31;;;;;;;5.72;1.95;;;7.70;73.50;;;2.86;100.00;97145.28;4970680;28;20037;-59
2024/01/27 02:37:57;;;;;;;4.47;1.63;;;7.70;73.40;;;2.83;100.00;97148.28;4969548;28;20113;-60
2024/01/27 02:40:23;;;;;;;5.78;1.75;;;7.70;73.40;;;2.83;100.00;97148.28;4970270;28;20635;-61
2024/01/27 02:42:49;;;;;;;7.50;1.77;;;7.70;73.50;;;2.81;100.00;97145.00;4970147;28;20018;-61
2024/01/27 02:45:15;;;;;;;6.70;1.73;;;7.70;73.50;;;2.83;100.00;97152.72;4970882;28;20492;-58
2024/01/27 02:47:40;;;;;;;6.72;1.73;;;7.70;73.60;;;2.85;100.00;97148.06;4970456;28;20485;-59
2024/01/27 02:50:07;;;;;;;5.55;1.83;;;7.70;73.70;;;2.89;100.00;97152.81;4971225;28;20034;-60
2024/01/27 02:52:33;;;;;;;3.30;1.70;;;7.80;73.70;;;2.94;100.00;97150.47;4969176;28;20026;-61
2024/01/27 02:55:00;;;;;;;5.88;1.60;;;7.80;73.70;;;2.99;100.00;97145.50;4970951;28;20065;-60
2024/01/27 02:57:25;;;;;;;3.42;1.88;;;7.80;73.70;;;3.07;100.00;97141.97;4969609;28;20118;-61
2024/01/27 02:59:51;;;;;;;5.05;1.52;;;7.80;73.60;;;2.99;100.00;97134.16;4969654;28;20556;-57
2024/01/27 03:02:17;;;;;;;4.35;1.45;;;7.90;73.60;;;2.93;100.00;97135.66;4970030;28;20029;-61
2024/01/27 03:04:43;;;;;;;8.00;1.40;;;7.90;73.50;;;2.91;100.00;97145.56;4969920;28;20033;-62
2024/01/27 03:07:09;;;;;;;6.65;2.10;;;7.90;73.40;;;2.89;100.00;97141.50;4969200;28;20543;-59
2024/01/27 03:09:36;;;;;;;3.30;1.50;;;7.80;73.20;;;2.88;100.00;97140.63;4967873;28;20037;-61
2024/01/27 03:12:02;;;;;;;6.28;1.85;;;7.80;73.20;;;2.86;100.00;97147.91;4970018;28;20084;-61
2024/01/27 03:14:29;;;;;;;5.80;2.42;;;7.80;73.20;;;2.82;100.00;97145.81;4970946;28;20056;-58
2024/01/27 03:16:55;;;;;;;3.88;1.75;;;7.70;73.00;;;2.83;100.00;97148.28;4966099;28;20026;-61
2024/01/27 03:19:21;;;;;;;9.52;1.88;;;7.70;72.90;;;2.71;100.00;97141.78;4971472;28;20042;-60
2024/01/27 03:21:47;;;;;;;5.28;2.05;;;7.60;72.70;;;2.60;100.00;97142.19;4967345;28;20056;-58
2024/01/27 03:24:12;;;;;;;8.63;2.30;;;7.60;72.60;;;2.47;100.00;97138.34;4969792;28;20026;-61
2024/01/27 03:26:38;;;;;;;4.32;2.20;;;7.50;72.60;;;2.40;100.00;97142.66;4968372;28;20040;-60
2024/01/27 03:29:04;;;;;;;3.85;2.33;;;7.50;72.60;;;2.38;100.00;97141.19;4970325;28;20121;-61
2024/01/27 03:31:34;;;;;;;5.65;2.33;;;7.40;72.60;;;2.34;100.00;97135.47;4967883;28;20117;-61
2024/01/27 03:34:01;;;;;;;3.17;2.45;;;7.30;72.50;;;2.26;100.00;97144.25;4968290;28;20052;-61
2024/01/27 03:36:28;;;;;;;4.68;2.28;;;7.30;72.50;;;2.18;100.00;97156.63;4967684;28;20467;-58
2024/01/27 03:38:57;;;;;;;7.65;2.40;;;7.20;72.40;;;2.17;100.00;97160.25;4970526;28;20073;-59
2024/01/27 03:41:23;;;;;;;3.90;1.90;;;7.20;72.50;;;2.11;100.00;97167.00;4968116;28;20297;-61
2024/01/27 03:43:50;;;;;;;6.82;2.30;;;7.10;72.50;;;2.12;100.00;97162.56;4970715;28;20025;-60
2024/01/27 03:46:16;;;;;;;4.68;2.28;;;7.00;72.60;;;2.08;100.00;97160.28;4968924;28;20106;-60
2024/01/27 03:48:42;;;;;;;5.32;2.05;;;7.00;72.60;;;2.04;100.00;97169.50;4970048;28;20492;-55
2024/01/27 03:51:08;;;;;;;6.95;2.20;;;7.00;72.70;;;1.99;100.00;97166.56;4969130;28;20026;-60
2024/01/27 03:53:34;;;;;;;6.63;2.40;;;6.90;72.60;;;1.95;100.00;97169.72;4970601;28;20479;-58
2024/01/27 03:56:04;;;;;;;8.23;2.30;;;6.90;72.60;;;1.91;100.00;97178.91;4969064;28;20038;-60
2024/01/27 03:58:30;;;;;;;5.38;2.30;;;6.80;72.60;;;1.82;100.00;97172.91;4968789;28;20072;-60
2024/01/27 04:00:57;;;;;;;6.60;2.42;;;6.80;72.60;;;1.79;100.00;97170.63;4968903;28;20377;-60
2024/01/27 04:03:24;;;;;;;8.48;2.20;;;6.70;72.60;;;1.77;100.00;97177.84;4967572;28;20373;-61
2024/01/27 04:05:50;;;;;;;6.43;2.20;;;6.70;72.70;;;1.72;100.00;97185.41;4973315;28;20041;-61
2024/01/27 04:08:16;;;;;;;4.95;2.28;;;6.70;72.80;;;1.68;100.00;97178.84;4973787;28;20476;-56
2024/01/27 04:10:41;;;;;;;6.70;2.67;;;6.70;72.70;;;1.68;100.00;97171.78;4970883;28;20022;-58
2024/01/27 04:13:08;;;;;;;10.90;2.70;;;6.60;72.70;;;1.68;100.00;97168.34;4975242;28;20029;-60
2024/01/27 04:15:38;;;;;;;11.85;2.60;;;6.60;72.70;;;1.68;100.00;97170.97;4973473;28;20057;-59
2024/01/27 04:18:11;;;;;;;5.18;2.67;;;6.50;72.70;;;1.66;100.00;97176.41;4971381;28;20029;-60
2024/01/27 04:20:37;;;;;;;4.60;2.50;;;6.50;72.80;;;1.57;100.00;97180.06;4970817;28;20424;-60
2024/01/27 04:23:03;;;;;;;6.38;2.47;;;6.50;72.80;;;1.53;100.00;97174.28;4976557;28;20032;-60
2024/01/27 04:25:29;;;;;;;12.15;2.80;;;6.50;72.80;;;1.54;100.00;97173.31;4972258;28;20030;-58
2024/01/27 04:27:55;;;;;;;6.88;2.40;;;6.40;72.90;;;1.52;100.00;97177.09;4974367;28;20042;-59
2024/01/27 04:30:22;;;;;;;9.05;2.80;;;6.40;73.00;;;1.47;100.00;97179.41;4972682;28;20068;-59
2024/01/27 04:32:49;;;;;;;6.80;2.63;;;6.40;73.00;;;1.44;100.00;97182.34;4974594;28;20072;-60
2024/01/27 04:35:16;;;;;;;11.40;3.38;;;6.40;72.90;;;1.45;100.00;97186.66;4973004;28;20029;-60
2024/01/27 04:37:44;;;;;;;8.90;3.08;;;6.40;73.00;;;1.48;100.00;97191.56;4975534;28;20022;-59
2024/01/27 04:40:11;;;;;;;8.77;2.50;;;6.30;73.00;;;1.43;100.00;97189.41;4972976;28;20439;-61
2024/01/27 04:42:40;;;;;;;6.68;2.70;;;6.30;73.00;;;1.37;100.00;97196.16;4975810;28;20072;-61
2024/01/27 04:45:08;;;;;;;11.75;2.65;;;6.30;73.00;;;1.36;100.00;97194.53;4974315;28;20029;-61
2024/01/27 04:47:34;;;;;;;7.32;2.42;;;6.30;73.00;;;1.25;100.00;97197.50;4970559;28;20032;-59
2024/01/27 04:50:00;;;;;;;7.50;3.60;;;6.20;72.90;;;1.25;100.00;97194.88;4974606;28;20385;-61
2024/01/27 04:52:26;;;;;;;6.32;2.50;;;6.20;72.80;;;1.24;100.00;97197.66;4973342;28;20037;-61
2024/01/27 04:54:52;;;;;;;5.22;2.60;;;6.20;72.80;;;1.20;100.00;97185.88;4974203;28;20081;-61
2024/01/27 04:57:18;;;;;;;10.50;2.83;;;6.10;72.80;;;1.12;100.00;97199.81;4975457;28;20060;-61
2024/01/27 04:59:44;;;;;;;9.05;3.17;;;6.10;72.80;;;1.05;100.00;97183.09;4969904;28;20495;-61
2024/01/27 05:02:11;;;;;;;6.97;2.60;;;6.10;72.80;;;1.00;100.00;97190.63;4976480;28;20038;-61
2024/01/27 05:04:38;;;;;;;6.55;2.75;;;6.10;72.80;;;0.97;100.00;97183.91;4970193;28;20022;-60
2024/01/27 05:07:04;;;;;;;10.60;3.10;;;6.00;72.80;;;0.98;100.00;97185.56;4969928;28;20068;-61
2024/01/27 05:09:30;;;;;;;8.38;2.97;;;5.90;72.70;;;0.96;100.00;97198.00;4962707;28;20033;-61
2024/01/27 05:11:56;;;;;;;6.93;2.47;;;5.90;72.80;;;0.88;100.00;97196.22;4967085;28;20026;-59
2024/01/27 05:14:22;;;;;;;9.50;3.25;;;5.90;72.90;;;0.90;100.00;97196.88;4964089;28;20022;-61
2024/01/27 05:16:48;;;;;;;6.88;3.25;;;5.90;72.90;;;0.83;100.00;97200.31;4969215;28;20029;-61
2024/01/27 05:19:15;;;;;;;9.27;3.22;;;5.80;72.90;;;0.85;100.00;97193.13;4962699;28;20042;-59
2024/01/27 05:21:40;;;;;;;8.77;3.20;;;5.80;72.90;;;0.77;100.00;97193.09;4964452;28;20882;-60
2024/01/27 05:24:06;;;;;;;10.90;3.50;;;5.80;72.80;;;0.68;100.00;97192.28;4961719;28;20038;-59
2024/01/27 05:26:32;;;;;;;14.43;3.88;;;5.70;72.70;;;0.72;100.00;97187.50;4964502;28;20030;-60
2024/01/27 05:28:58;;;;;;;9.98;3.85;;;5.70;72.80;;;0.69;100.00;97186.88;4966410;28;20061;-61
2024/01/27 05:31:26;;;;;;;8.88;4.18;;;5.60;72.80;;;0.69;100.00;97189.50;4963268;28;20112;-60
2024/01/27 05:33:52;;;;;;;10.98;3.90;;;5.60;72.90;;;0.69;100.00;97193.94;4965301;28;20034;-60
2024/01/27 05:36:18;;;;;;;8.30;3.95;;;5.60;73.10;;;0.69;100.00;97193.94;4963890;28;20026;-61
2024/01/27 05:38:44;;;;;;;8.77;4.18;;;5.60;73.00;;;0.67;100.00;97194.06;4964401;28;20041;-60
2024/01/27 05:41:10;;;;;;;8.65;3.78;;;5.60;73.10;;;0.65;100.00;97198.66;4968879;28;20022;-61
2024/01/27 05:43:36;;;;;;;10.48;4.38;;;5.50;73.10;;;0.61;100.00;97202.59;4981671;28;20050;-61
2024/01/27 05:46:02;;;;;;;11.95;3.40;;;5.60;73.20;;;0.54;100.00;97201.59;4968358;28;20431;-60
2024/01/27 05:48:27;;;;;;;14.60;5.00;;;5.50;73.00;;;0.48;100.00;97189.16;4966288;28;20172;-61
2024/01/27 05:50:59;;;;;;;8.48;4.25;;;5.50;73.00;;;0.37;100.00;97187.63;4967621;28;20125;-61
2024/01/27 05:53:27;;;;;;;9.50;4.50;;;5.40;72.90;;;0.39;100.00;97190.09;4969845;28;20054;-61
2024/01/27 05:55:54;;;;;;;10.27;4.63;;;5.40;72.90;;;0.38;100.00;97191.09;4969386;28;20037;-61
2024/01/27 05:58:23;;;;;;;13.48;4.78;;;5.40;72.90;;;0.36;100.00;97201.72;4966210;28;20010;-61
2024/01/27 06:00:49;;;;;;;11.25;4.47;;;5.40;72.90;;;0.35;100.00;97205.34;4968522;28;20036;-61
2024/01/27 06:03:16;;;;;;;14.02;4.30;;;5.30;72.90;;;0.36;100.00;97211.41;4964291;28;20030;-61
2024/01/27 06:05:43;;;;;;;9.35;4.30;;;5.30;72.90;;;0.35;100.00;97207.16;4971812;28;20029;-60
2024/01/27 06:08:09;;;;;;;9.98;4.50;;;5.30;72.90;;;0.28;100.00;97211.38;4967483;28;20030;-61
2024/01/27 06:10:37;;;;;;;12.43;4.10;;;5.20;72.80;;;0.19;100.00;97206.13;4968091;28;20400;-61
2024/01/27 06:13:04;;;;;;;13.20;5.22;;;5.20;72.70;;;0.15;100.00;97198.72;4966551;28;20022;-60
2024/01/27 06:15:30;;;;;;;15.50;4.55;;;5.20;72.80;;;0.19;100.00;97206.13;4972227;28;20037;-61
2024/01/27 06:17:57;;;;;;;14.95;4.47;;;5.10;72.90;;;0.22;100.00;97208.44;4964247;28;20026;-61
2024/01/27 06:20:23;;;;;;;20.13;4.97;;;5.10;73.00;;;0.24;100.00;97203.00;4967439;28;20125;-60
2024/01/27 06:22:49;;;;;;;18.38;5.30;;;5.10;73.10;;;0.20;100.00;97202.50;4962300;28;20030;-61
2024/01/27 06:25:16;;;;;;;9.10;4.95;;;5.10;73.20;;;0.16;100.00;97206.44;4970963;28;20503;-61
2024/01/27 06:27:42;;;;;;;16.48;5.10;;;5.10;73.10;;;0.10;100.00;97201.84;4966125;28;20062;-61
2024/01/27 06:30:10;;;;;;;14.82;5.43;;;5.00;73.10;;;0.10;100.00;97193.16;4967983;28;20054;-61
2024/01/27 06:32:36;;;;;;;14.23;5.20;;;5.00;73.10;;;0.09;100.00;97194.13;4965206;28;20072;-61
2024/01/27 06:35:05;;;;;;;17.30;5.72;;;5.00;73.10;;;0.06;100.00;97197.06;4971588;28;20030;-61
2024/01/27 06:37:31;;;;;;;13.73;5.00;;;5.00;73.20;;;0.06;100.00;97195.25;4968150;28;20135;-61
2024/01/27 06:39:57;;;;;;;14.38;5.10;;;5.00;73.30;;;0.04;100.00;97197.22;4968668;28;20026;-60
2024/01/27 06:42:22;;;;;;;17.67;5.35;;;5.00;73.30;;;-0.01;100.00;97197.69;4964287;28;20045;-61
2024/01/27 06:44:48;;;;;;;13.68;5.72;;;5.00;73.30;;;-0.01;100.00;97200.31;4965923;28;20113;-61
2024/01/27 06:47:14;;;;;;;14.98;5.20;;;4.90;73.30;;;0.03;100.00;97215.72;4961116;28;20058;-61
2024/01/27 06:49:40;;;;;;;14.10;5.25;;;5.00;73.30;;;0.01;100.00;97209.84;4971887;28;20136;-61
2024/01/27 06:52:06;;;;;;;13.60;4.75;;;5.00;73.30;;;-0.04;100.00;97220.78;4968572;28;20034;-61
2024/01/27 06:54:32;;;;;;;12.15;5.03;;;4.90;73.20;;;-0.08;100.00;97219.47;4968199;28;20026;-61
2024/01/27 06:57:00;;;;;;;12.32;5.22;;;4.90;73.10;;;-0.12;100.00;97224.19;4965974;28;20022;-61
2024/01/27 06:59:27;;;;;;;16.80;5.35;;;4.90;73.10;;;-0.15;100.00;97221.06;4968631;28;20341;-61
2024/01/27 07:01:53;;;;;;;13.90;4.60;;;4.90;73.00;;;-0.15;100.00;97219.25;4966829;28;20034;-59
2024/01/27 07:04:18;;;;;;;15.63;5.65;;;4.90;73.00;;;-0.16;100.00;97224.66;4966527;28;20493;-60
2024/01/27 07:06:45;;;;;;;18.05;6.40;;;4.80;73.00;;;-0.17;100.00;97223.00;4968613;28;20114;-58
2024/01/27 07:09:11;;;;;;;17.73;6.03;;;4.90;73.20;;;-0.17;100.00;97217.78;4970341;28;20030;-61
2024/01/27 07:11:38;;;;;;;18.67;6.15;;;4.80;73.20;;;-0.13;100.00;97214.66;4970390;28;20061;-60
2024/01/27 07:14:04;;;;;;;18.80;6.80;;;4.90;73.30;;;-0.07;100.00;97215.84;4970126;28;20377;-61
2024/01/27 07:16:32;;;;;;;16.02;7.00;;;4.90;73.50;;;-0.03;100.00;97206.72;4970517;28;20122;-60
2024/01/27 07:18:58;;;;;;;20.20;6.97;;;4.90;73.50;;;-0.02;100.00;97209.16;4969447;28;20081;-58
2024/01/27 07:21:24;;;;;;;14.50;6.82;;;4.90;73.60;;;0.02;100.00;97208.84;4969753;28;20068;-61
2024/01/27 07:23:49;;;;;;;16.60;6.78;;;4.90;73.60;;;0.05;100.00;97211.97;4970042;28;20018;-61
2024/01/27 07:26:16;;;;;;;13.00;6.38;;;5.00;73.70;;;0.07;100.00;97215.25;4970171;28;20026;-60
2024/01/27 07:28:42;;;;;;;16.75;7.35;;;5.00;73.70;;;0.13;100.00;97214.63;4969239;28;20469;-61
2024/01/27 07:31:08;;;;;;;19.90;6.22;;;5.10;73.80;;;0.17;100.00;97215.94;4970455;28;20034;-60
2024/01/27 07:33:34;;;;;;;11.30;6.40;;;5.10;73.80;;;0.26;100.00;97210.72;4969312;28;20422;-60
2024/01/27 07:35:59;;;;;;;14.48;6.25;;;5.20;73.90;;;0.33;100.00;97211.72;4970759;28;20049;-58
2024/01/27 07:38:25;;;;;;;13.10;6.50;;;5.20;74.00;;;0.39;100.00;97214.53;4969527;28;20037;-59
2024/01/27 07:40:51;;;;;;;20.58;7.57;;;5.30;74.00;;;0.48;100.00;97222.41;4969697;28;20393;-60
2024/01/27 07:43:17;;;;;;;15.43;6.85;;;5.40;74.10;;;0.54;100.00;97222.59;4969509;28;20033;-60
2024/01/27 07:45:44;;;;;;;16.98;7.53;;;5.40;74.00;;;0.58;100.00;97220.47;4969157;28;20053;-61
2024/01/27 07:48:10;;;;;;;15.63;8.32;;;5.50;74.00;;;0.64;100.00;97212.75;4969893;28;20026;-60
2024/01/27 07:50:36;;;;;;;18.92;8.52;;;5.60;74.10;;;0.68;100.00;97211.44;4970615;28;20037;-59
2024/01/27 07:53:02;;;;;;;15.45;7.22;;;5.60;74.10;;;0.71;100.00;97218.16;4968943;28;20068;-61
2024/01/27 07:55:27;;;;;;;19.73;7.57;;;5.70;74.10;;;0.77;100.00;97221.94;4970302;28;20044;-59
2024/01/27 07:57:53;;;;;;;17.75;7.78;;;5.70;74.00;;;0.84;100.00;97220.31;4969867;28;20030;-60
2024/01/27 08:00:20;;;;;;;16.85;7.60;;;5.80;74.00;;;0.91;100.00;97221.31;4970556;28;20076;-59
2024/01/27 08:02:45;;;;;;;18.77;7.72;;;5.90;74.10;;;0.95;100.00;97227.88;4970037;28;20039;-60
2024/01/27 08:05:11;;;;;;;22.80;8.18;;;5.90;74.10;;;1.05;100.00;97228.53;4969946;28;20431;-60
2024/01/27 08:07:37;;;;;;;24.00;8.25;;;6.00;74.20;;;1.17;100.00;97241.31;4969375;28;20061;-61
2024/01/27 08:10:04;;;;;;;15.85;7.25;;;6.20;74.40;;;1.29;100.00;97240.00;4968866;28;20030;-61
2024/01/27 08:12:30;;;;;;;18.95;7.13;;;6.30;74.40;;;1.39;100.00;97238.84;4969508;28;20022;-61
2024/01/27 08:14:56;;;;;;;18.02;7.63;;;6.40;74.30;;;1.52;100.00;97227.81;4970080;28;20036;-61
2024/01/27 08:17:22;;;;;;;18.08;7.68;;;6.60;74.40;;;1.71;100.00;97225.81;4968796;28;20053;-61
2024/01/27 08:19:48;;;;;;;19.98;8.30;;;6.80;74.50;;;1.93;100.00;97221.63;4983067;23;20061;-54
2024/01/27 08:22:14;;;;;;;19.77;7.55;;;7.00;74.70;;;2.12;100.00;97218.59;4948630;28;20061;-53
2024/01/27 08:24:40;;;;;;;15.50;6.85;;;7.20;74.90;;;2.29;100.00;97222.78;4950951;28;20213;-51
2024/01/27 08:27:05;;;;;;;12.02;6.03;;;7.40;74.80;;;2.45;100.00;97223.69;4950840;28;20026;-51
2024/01/27 08:29:31;;;;;;;13.90;5.70;;;7.60;74.60;;;2.58;100.00;97231.03;4938954;28;20046;-52
2024/01/27 08:31:57;;;;;;;20.05;6.28;;;7.80;74.50;;;2.65;100.00;97229.31;4926474;29;20023;-51
2024/01/27 08:34:23;;;;;;;13.40;5.68;;;8.00;74.30;;;2.71;100.00;97223.38;4925846;29;20027;-51
2024/01/27 08:36:49;;;;;;;14.52;5.53;;;8.10;74.10;;;2.77;100.00;97220.84;4929406;29;20035;-52
2024/01/27 08:39:15;;;;;;;15.57;5.38;;;8.20;74.00;;;2.82;100.00;97222.97;4925318;29;20023;-51
2024/01/27 08:41:40;;;;;;;12.77;4.90;;;8.30;73.80;;;2.89;100.00;97220.44;4923027;29;20033;-53
2024/01/27 08:44:06;;;;;;;10.48;4.88;;;8.30;73.70;;;2.98;100.00;97219.41;4924746;28;20414;-54
2024/01/27 08:46:32;;;;;;;8.52;4.40;;;8.30;73.60;;;3.03;100.00;97229.38;4924256;29;20038;-52
2024/01/27 08:48:58;;;;;;;14.27;4.35;;;8.30;73.50;;;2.98;100.00;97224.66;4925623;29;20050;-54
2024/01/27 08:51:24;;;;;;;11.23;4.25;;;8.30;73.30;;;2.87;100.00;97225.06;4928597;29;20443;-52
2024/01/27 08:53:50;;;;;;;6.85;3.97;;;8.40;73.20;;;2.87;100.00;97230.31;4925539;29;20046;-55
2024/01/27 08:56:17;;;;;;;8.52;4.00;;;8.40;73.10;;;2.86;100.00;97234.78;4928323;28;20027;-51
2024/01/27 08:58:49;;;;;;;8.82;3.90;;;8.40;73.00;;;2.87;100.00;97232.97;4928989;29;20030;-52
2024/01/27 09:01:19;;;;;;;7.55;4.47;;;8.40;72.90;;;2.87;100.00;97238.22;4927127;29;20034;-52
2024/01/27 09:03:46;;;;;;;8.48;4.60;;;8.40;72.90;;;2.96;100.00;97235.34;4924820;29;20034;-51
2024/01/27 09:06:12;;;;;;;10.70;4.70;;;8.50;73.00;;;3.10;100.00;97230.31;4931055;29;20094;-54
2024/01/27 09:08:38;;;;;;;9.75;4.25;;;8.60;73.00;;;3.18;100.00;97231.06;4928166;29;20031;-51
2024/01/27 09:11:04;;;;;;;10.65;4.70;;;8.70;73.00;;;3.24;100.00;97234.81;4923186;29;20027;-51
2024/01/27 09:13:30;;;;;;;14.32;4.43;;;8.80;72.90;;;3.13;100.00;97224.69;4926672;29;20023;-51
2024/01/27 09:15:59;;;;;;;8.73;4.40;;;8.90;72.90;;;3.22;100.00;97232.34;4926779;29;20041;-52
2024/01/27 09:18:27;;;;;;;7.38;4.35;;;9.10;72.70;;;3.37;100.00;97235.00;4926346;29;20114;-51
2024/01/27 09:20:52;;;;;;;9.60;4.00;;;9.20;72.60;;;3.50;100.00;97237.03;4929943;29;20522;-52
2024/01/27 09:23:18;;;;;;;7.22;3.63;;;9.30;72.50;;;3.76;100.00;97235.78;4925093;29;20103;-51
2024/01/27 09:25:44;;;;;;;5.65;3.88;;;9.50;72.40;;;4.03;100.00;97231.72;4929243;29;20617;-51
2024/01/27 09:28:11;;;;;;;10.57;3.47;;;9.70;72.10;;;4.17;100.00;97239.63;4926343;29;20476;-51
2024/01/27 09:30:37;;;;;;;8.38;3.75;;;10.00;72.00;;;4.49;100.00;97242.03;4927731;29;20101;-53
2024/01/27 09:33:03;;;;;;;6.72;3.30;;;10.30;71.80;;;4.80;100.00;97244.41;4926695;29;20023;-51
2024/01/27 09:35:29;;;;;;;8.02;3.55;;;10.70;71.60;;;5.16;100.00;97236.41;4929742;29;20553;-51
2024/01/27 09:37:55;;;;;;;3.78;3.10;;;11.20;71.30;;;5.61;100.00;97247.56;4926852;29;20027;-53
2024/01/27 09:40:20;;;;;;;7.13;3.60;;;11.70;70.80;;;5.98;100.00;97238.44;4924548;29;20540;-53
2024/01/27 09:43:00;;;;;;;5.30;3.13;;;12.30;70.20;;;6.43;100.00;97248.66;4926731;29;20023;-53
2024/01/27 09:45:26;;;;;;;8.10;3.47;;;13.00;68.90;;;6.77;99.85;97237.16;4924563;29;20111;-52
2024/01/27 09:47:56;;;;;;;6.30;3.40;;;13.40;68.40;;;6.94;95.68;97232.31;4926500;29;20101;-52
2024/01/27 09:50:23;;;;;;;5.28;2.92;;;13.70;67.30;;;7.13;94.37;97230.69;4926835;29;20032;-54
2024/01/27 09:52:49;;;;;;;6.85;3.35;;;13.90;66.50;;;7.25;93.11;97222.97;4934513;29;20053;-51
2024/01/27 09:55:15;;;;;;;5.07;2.95;;;14.20;65.80;;;7.49;91.52;97230.31;4914074;29;20027;-51
2024/01/27 09:57:44;;;;;;;4.90;3.17;;;14.40;65.20;;;7.71;90.21;97233.56;4925215;29;20035;-51
2024/01/27 10:00:12;;;;;;;9.13;3.35;;;14.60;64.60;;;7.53;89.52;97228.06;4933569;29;20027;-51
2024/01/27 10:02:42;;;;;;;5.63;3.08;;;14.80;64.20;;;7.36;91.27;97225.00;4921399;29;20394;-52
2024/01/27 10:05:10;;;;;;;3.88;2.72;;;15.00;63.60;;;7.52;89.01;97227.25;4926338;29;20042;-51
2024/01/27 10:07:36;;;;;;;8.05;3.50;;;15.10;62.90;;;7.77;88.51;97234.56;4926869;29;20026;-54
2024/01/27 10:10:03;;;;;;;4.88;3.38;;;15.30;62.40;;;7.97;86.88;97229.22;4926377;29;20035;-57
2024/01/27 10:12:31;;;;;;;4.40;3.53;;;15.40;62.00;;;7.86;85.02;97233.31;4928973;29;20070;-57
2024/01/27 10:14:57;;;;;;;8.35;4.45;;;15.50;61.30;;;7.86;86.59;97226.16;4931860;29;20370;-57
2024/01/27 10:17:28;;;;;;;10.02;4.20;;;15.60;60.60;;;7.75;88.41;97226.81;4923596;29;20090;-56
2024/01/27 10:20:03;;;;;;;6.82;3.78;;;15.70;60.30;;;7.35;89.69;97215.41;4931084;29;20043;-51